Time,TemperatureF,DewpointF,PressureIn,WindDirection,WindDirectionDegrees,WindSpeedMPH,WindSpeedGustMPH,Humidity,HourlyPrecipIn,Conditions,Clouds,dailyrainin,SoftwareType,DateUTC
2013-04-03 00:00:00,31.6,21.5,30.02,West,275,12.0,25.0,66,0.00,RA,,0.00,WeatherDisplay:10.37,2013-04-03 04:00:00,
2013-04-03 00:10:00,31.5,21.4,30.01,West,276,8.0,43.0,66,0.00,-SN,,0.00,WeatherDisplay:10.37,2013-04-03 04:10:00,
2013-04-03 00:30:00,31.3,20.5,30.01,WNW,286,14.0,23.0,64,0.00,-SN,,0.00,WeatherDisplay:10.37,2013-04-03 04:30:00,
2013-04-03 00:40:00,31.1,20.3,30.01,West,276,16.0,27.0,64,0.00,-SN,,0.00,WeatherDisplay:10.37,2013-04-03 04:40:00,
2013-04-03 00:50:00,30.9,20.5,30.02,WNW,292,10.0,24.0,65,0.00,-SN,,0.00,WeatherDisplay:10.37,2013-04-03 04:50:00,
2013-04-03 01:00:00,30.7,20.7,30.02,WNW,282,6.0,20.0,66,0.00,-SN,,0.00,WeatherDisplay:10.37,2013-04-03 05:00:00,
2013-04-03 01:10:00,30.6,20.9,30.02,West,271,9.0,15.0,67,0.00,BKN,,0.00,WeatherDisplay:10.37,2013-04-03 05:10:00,
2013-04-03 01:20:00,30.6,20.9,30.02,West,278,13.0,20.0,67,0.00,BKN,,0.00,WeatherDisplay:10.37,2013-04-03 05:20:00,
2013-04-03 01:30:00,30.6,21.3,30.02,West,279,10.0,21.0,68,0.00,BKN,,0.00,WeatherDisplay:10.37,2013-04-03 05:30:00,
2013-04-03 01:40:00,30.6,21.6,30.02,West,267,2.0,21.0,69,0.00,BKN,,0.00,WeatherDisplay:10.37,2013-04-03 05:40:00,
2013-04-03 01:50:00,30.5,22.2,30.02,West,273,5.0,17.0,71,0.00,BKN,,0.00,WeatherDisplay:10.37,2013-04-03 05:50:00,
2013-04-03 02:00:00,30.3,21.7,30.03,WNW,300,14.0,23.0,70,0.00,BKN,,0.00,WeatherDisplay:10.37,2013-04-03 06:00:00,
2013-04-03 02:10:00,30.2,22.0,30.02,WNW,289,7.0,24.0,71,0.00,-SN,,0.00,WeatherDisplay:10.37,2013-04-03 06:10:00,
2013-04-03 02:20:00,30.0,21.4,30.02,WNW,299,15.0,21.0,70,0.00,-SN,,0.00,WeatherDisplay:10.37,2013-04-03 06:20:00,
2013-04-03 02:30:00,29.8,21.2,30.02,West,274,10.0,20.0,70,0.00,-SN,,0.00,WeatherDisplay:10.37,2013-04-03 06:30:00,
2013-04-03 02:40:00,29.7,21.4,30.02,WNW,294,8.0,20.0,71,0.00,-SN,,0.00,WeatherDisplay:10.37,2013-04-03 06:40:00,
2013-04-03 02:50:00,29.6,21.4,30.02,WNW,292,3.0,21.0,71,0.00,-SN,,0.00,WeatherDisplay:10.37,2013-04-03 06:50:00,
2013-04-03 03:00:00,29.7,22.1,30.02,West,273,3.0,17.0,73,0.00,-SN,,0.00,WeatherDisplay:10.37,2013-04-03 07:00:00,
2013-04-03 03:10:00,29.4,22.5,30.02,WNW,297,12.0,30.0,75,0.00,-SN,,0.00,WeatherDisplay:10.37,2013-04-03 07:10:00,
2013-04-03 03:20:00,29.1,21.8,30.02,WNW,297,13.0,21.0,74,0.00,-SN,,0.00,WeatherDisplay:10.37,2013-04-03 07:20:00,
2013-04-03 03:30:00,28.9,21.3,30.02,West,281,6.0,14.0,73,0.00,-SN,,0.00,WeatherDisplay:10.37,2013-04-03 07:30:00,
2013-04-03 03:40:00,28.9,20.7,30.02,NW,306,7.0,18.0,71,0.00,-SN,,0.00,WeatherDisplay:10.37,2013-04-03 07:40:00,
2013-04-03 03:50:00,28.8,20.2,30.02,West,280,8.0,14.0,70,0.00,-SN,,0.00,WeatherDisplay:10.37,2013-04-03 07:50:00,
2013-04-03 04:00:00,28.8,20.2,30.02,West,271,6.0,18.0,70,0.00,-SN,,0.00,WeatherDisplay:10.37,2013-04-03 08:00:00,
2013-04-03 04:10:00,28.6,20.1,30.02,NW,305,3.0,14.0,70,0.00,SCT,,0.00,WeatherDisplay:10.37,2013-04-03 08:10:00,
2013-04-03 04:20:00,28.4,19.9,30.02,WNW,286,5.0,15.0,70,0.00,SCT,,0.00,WeatherDisplay:10.37,2013-04-03 08:20:00,
2013-04-03 04:30:00,28.2,20.0,30.03,WNW,296,7.0,12.0,71,0.00,SCT,,0.00,WeatherDisplay:10.37,2013-04-03 08:30:00,
2013-04-03 04:40:00,28.1,19.9,30.03,WNW,284,10.0,17.0,71,0.00,SCT,,0.00,WeatherDisplay:10.37,2013-04-03 08:40:00,
2013-04-03 04:50:00,28.0,19.8,30.03,West,268,3.0,11.0,71,0.00,SCT,,0.00,WeatherDisplay:10.37,2013-04-03 08:50:00,
2013-04-03 05:00:00,27.9,19.7,30.03,WNW,289,3.0,8.0,71,0.00,SCT,,0.00,WeatherDisplay:10.37,2013-04-03 09:00:00,
2013-04-03 05:10:00,27.7,19.9,30.03,West,278,5.0,8.0,72,0.00,FEW,,0.00,WeatherDisplay:10.37,2013-04-03 09:10:00,
2013-04-03 05:20:00,27.5,20.0,30.04,West,265,0.0,6.0,73,0.00,FEW,,0.00,WeatherDisplay:10.37,2013-04-03 09:20:00,
2013-04-03 05:30:00,27.4,20.2,30.04,WNW,297,0.0,11.0,74,0.00,FEW,,0.00,WeatherDisplay:10.37,2013-04-03 09:30:00,
2013-04-03 05:40:00,27.2,20.0,30.04,West,269,6.0,12.0,74,0.00,FEW,,0.00,WeatherDisplay:10.37,2013-04-03 09:40:00,
2013-04-03 05:50:00,27.2,20.0,30.05,West,273,5.0,9.0,74,0.00,FEW,,0.00,WeatherDisplay:10.37,2013-04-03 09:50:00,
2013-04-03 06:00:00,27.2,20.0,30.05,WSW,258,7.0,12.0,74,0.00,FEW,,0.00,WeatherDisplay:10.37,2013-04-03 10:00:00,
2013-04-03 06:10:00,27.2,20.0,30.05,West,265,0.0,8.0,74,0.00,FEW,,0.00,WeatherDisplay:10.37,2013-04-03 10:10:00,
2013-04-03 06:20:00,27.1,19.9,30.06,West,278,0.0,8.0,74,0.00,FEW,,0.00,WeatherDisplay:10.37,2013-04-03 10:20:00,
2013-04-03 06:30:00,26.9,20.0,30.06,WSW,241,2.0,8.0,75,0.00,FEW,,0.00,WeatherDisplay:10.37,2013-04-03 10:30:00,
2013-04-03 06:40:00,26.7,19.8,30.07,WSW,239,0.0,5.0,75,0.00,FEW,,0.00,WeatherDisplay:10.37,2013-04-03 10:40:00,
2013-04-03 06:50:00,26.3,19.8,30.07,WSW,242,0.0,5.0,76,0.00,FEW,,0.00,WeatherDisplay:10.37,2013-04-03 10:50:00,
2013-04-03 07:00:00,26.1,19.9,30.07,WSW,242,1.0,3.0,77,0.00,FEW,,0.00,WeatherDisplay:10.37,2013-04-03 11:00:00,
2013-04-03 07:10:00,26.4,20.2,30.08,West,269,3.0,8.0,77,0.00,SCT,,0.00,WeatherDisplay:10.37,2013-04-03 11:10:00,
2013-04-03 07:20:00,27.1,20.2,30.08,West,269,2.0,12.0,75,0.00,SCT,,0.00,WeatherDisplay:10.37,2013-04-03 11:20:00,
2013-04-03 07:30:00,28.2,20.4,30.09,West,281,7.0,18.0,72,0.00,SCT,,0.00,WeatherDisplay:10.37,2013-04-03 11:30:00,
2013-04-03 07:40:00,29.0,20.8,30.09,West,269,5.0,12.0,71,0.00,SCT,,0.00,WeatherDisplay:10.37,2013-04-03 11:40:00,
2013-04-03 07:50:00,29.8,20.9,30.09,WNW,294,8.0,12.0,69,0.00,SCT,,0.00,WeatherDisplay:10.37,2013-04-03 11:50:00,
2013-04-03 08:00:00,30.4,21.5,30.09,West,263,5.0,15.0,69,0.00,SCT,,0.00,WeatherDisplay:10.37,2013-04-03 12:00:00,
2013-04-03 08:10:00,30.9,21.6,30.10,WSW,254,13.0,17.0,68,0.00,SCT,,0.00,WeatherDisplay:10.37,2013-04-03 12:10:00,
2013-04-03 08:20:00,31.2,20.8,30.10,WNW,289,13.0,21.0,65,0.00,SCT,,0.00,WeatherDisplay:10.37,2013-04-03 12:20:00,
2013-04-03 08:30:00,31.5,21.4,30.10,West,280,6.0,18.0,66,0.00,SCT,,0.00,WeatherDisplay:10.37,2013-04-03 12:30:00,
2013-04-03 08:40:00,32.0,20.4,30.10,WNW,290,10.0,20.0,62,0.00,SCT,,0.00,WeatherDisplay:10.37,2013-04-03 12:40:00,
2013-04-03 08:50:00,32.8,20.8,30.09,WNW,284,9.0,14.0,61,0.00,SCT,,0.00,WeatherDisplay:10.37,2013-04-03 12:50:00,
2013-04-03 09:00:00,32.7,19.6,30.09,WNW,301,12.0,30.0,58,0.00,SCT,,0.00,WeatherDisplay:10.37,2013-04-03 13:00:00,
2013-04-03 09:10:00,32.9,18.9,30.09,NW,309,21.0,30.0,56,0.00,SCT,,0.00,WeatherDisplay:10.37,2013-04-03 13:10:00,
2013-04-03 09:20:00,33.5,19.0,30.09,WNW,289,21.0,24.0,55,0.00,SCT,,0.00,WeatherDisplay:10.37,2013-04-03 13:20:00,
2013-04-03 09:30:00,33.1,18.2,30.09,WNW,291,15.0,25.0,54,0.00,SCT,,0.00,WeatherDisplay:10.37,2013-04-03 13:30:00,
2013-04-03 09:40:00,34.0,18.7,30.09,WNW,284,17.0,24.0,53,0.00,SCT,,0.00,WeatherDisplay:10.37,2013-04-03 13:40:00,
2013-04-03 09:50:00,34.3,18.0,30.09,WNW,293,18.0,25.0,51,0.00,SCT,,0.00,WeatherDisplay:10.37,2013-04-03 13:50:00,
2013-04-03 10:00:00,34.1,16.5,30.09,WNW,295,30.0,32.0,48,0.00,SCT,,0.00,WeatherDisplay:10.37,2013-04-03 14:00:00,
2013-04-03 10:10:00,34.7,16.0,30.09,WNW,290,23.0,33.0,46,0.00,SCT,,0.00,WeatherDisplay:10.37,2013-04-03 14:10:00,
2013-04-03 10:20:00,34.9,15.7,30.09,WNW,285,24.0,41.0,45,0.00,SCT,,0.00,WeatherDisplay:10.37,2013-04-03 14:20:00,
2013-04-03 10:30:00,35.1,15.8,30.09,WNW,289,23.0,35.0,45,0.00,SCT,,0.00,WeatherDisplay:10.37,2013-04-03 14:30:00,
2013-04-03 10:40:00,35.8,16.0,30.09,WNW,292,23.0,32.0,44,0.00,SCT,,0.00,WeatherDisplay:10.37,2013-04-03 14:40:00,
2013-04-03 10:50:00,35.8,16.0,30.09,WNW,296,22.0,43.0,44,0.00,SCT,,0.00,WeatherDisplay:10.37,2013-04-03 14:50:00,
2013-04-03 11:00:00,36.5,16.0,30.09,WNW,286,23.0,32.0,43,0.00,SCT,,0.00,WeatherDisplay:10.37,2013-04-03 15:00:00,
2013-04-03 11:10:00,36.8,16.4,30.09,WNW,290,18.0,30.0,43,0.00,SCT,,0.00,WeatherDisplay:10.37,2013-04-03 15:10:00,
2013-04-03 11:20:00,36.9,15.9,30.10,WNW,295,20.0,32.0,42,0.00,SCT,,0.00,WeatherDisplay:10.37,2013-04-03 15:20:00,
2013-04-03 11:30:00,37.0,16.0,30.09,WNW,292,15.0,32.0,42,0.00,SCT,,0.00,WeatherDisplay:10.37,2013-04-03 15:30:00,
2013-04-03 11:40:00,37.0,16.5,30.10,WNW,287,17.0,39.0,43,0.00,SCT,,0.00,WeatherDisplay:10.37,2013-04-03 15:40:00,
2013-04-03 11:50:00,37.3,16.2,30.10,WNW,282,12.0,35.0,42,0.00,SCT,,0.00,WeatherDisplay:10.37,2013-04-03 15:50:00,
2013-04-03 12:00:00,37.5,15.9,30.10,WNW,302,17.0,35.0,41,0.00,SCT,,0.00,WeatherDisplay:10.37,2013-04-03 16:00:00,
2013-04-03 12:10:00,37.7,15.5,30.10,WNW,297,20.0,29.0,40,0.00,SCT,,0.00,WeatherDisplay:10.37,2013-04-03 16:10:00,
2013-04-03 12:30:00,38.6,16.3,30.09,West,280,10.0,33.0,40,0.00,SCT,,0.00,WeatherDisplay:10.37,2013-04-03 16:30:00,
2013-04-03 12:40:00,39.2,16.3,30.09,West,281,15.0,33.0,39,0.00,SCT,,0.00,WeatherDisplay:10.37,2013-04-03 16:40:00,
2013-04-03 12:50:00,39.1,16.2,30.09,WNW,296,21.0,36.0,39,0.00,SCT,,0.00,WeatherDisplay:10.37,2013-04-03 16:50:00,
2013-04-03 13:00:00,39.9,16.9,30.08,WNW,290,14.0,30.0,39,0.00,SCT,,0.00,WeatherDisplay:10.37,2013-04-03 17:00:00,
2013-04-03 13:10:00,39.7,15.5,30.09,West,276,24.0,30.0,37,0.00,SCT,,0.00,WeatherDisplay:10.37,2013-04-03 17:10:00,
2013-04-03 13:20:00,39.8,15.6,30.09,WNW,286,29.0,32.0,37,0.00,SCT,,0.00,WeatherDisplay:10.37,2013-04-03 17:20:00,
2013-04-03 13:30:00,40.3,15.4,30.09,West,276,21.0,32.0,36,0.00,SCT,,0.00,WeatherDisplay:10.37,2013-04-03 17:30:00,
2013-04-03 13:40:00,40.3,16.1,30.10,West,272,16.0,32.0,37,0.00,SCT,,0.00,WeatherDisplay:10.37,2013-04-03 17:40:00,
2013-04-03 13:50:00,40.5,14.9,30.09,WNW,293,25.0,29.0,35,0.00,SCT,,0.00,WeatherDisplay:10.37,2013-04-03 17:50:00,
2013-04-03 14:00:00,40.2,16.0,30.09,West,269,17.0,33.0,37,0.00,SCT,,0.00,WeatherDisplay:10.37,2013-04-03 18:00:00,
2013-04-03 14:10:00,40.6,15.7,30.10,WNW,297,18.0,30.0,36,0.00,SCT,,0.00,WeatherDisplay:10.37,2013-04-03 18:10:00,
2013-04-03 14:20:00,40.4,15.5,30.10,WNW,282,17.0,46.0,36,0.00,SCT,,0.00,WeatherDisplay:10.37,2013-04-03 18:20:00,
2013-04-03 14:30:00,40.6,15.0,30.10,WNW,294,23.0,33.0,35,0.00,SCT,,0.00,WeatherDisplay:10.37,2013-04-03 18:30:00,
2013-04-03 14:40:00,40.8,16.5,30.10,WNW,283,15.0,41.0,37,0.00,SCT,,0.00,WeatherDisplay:10.37,2013-04-03 18:40:00,
2013-04-03 14:50:00,41.3,17.6,30.10,West,267,20.0,29.0,38,0.00,SCT,,0.00,WeatherDisplay:10.37,2013-04-03 18:50:00,
2013-04-03 15:00:00,40.6,17.0,30.10,WNW,295,17.0,33.0,38,0.00,SCT,,0.00,WeatherDisplay:10.37,2013-04-03 19:00:00,
2013-04-03 15:10:00,40.4,17.4,30.10,WNW,284,28.0,33.0,39,0.00,SCT,,0.00,WeatherDisplay:10.37,2013-04-03 19:10:00,
2013-04-03 15:20:00,41.0,17.9,30.11,West,272,23.0,35.0,39,0.00,SCT,,0.00,WeatherDisplay:10.37,2013-04-03 19:20:00,
2013-04-03 15:30:00,40.4,16.8,30.11,WNW,299,22.0,38.0,38,0.00,SCT,,0.00,WeatherDisplay:10.37,2013-04-03 19:30:00,
2013-04-03 15:40:00,40.4,18.0,30.10,West,276,24.0,39.0,40,0.00,SCT,,0.00,WeatherDisplay:10.37,2013-04-03 19:40:00,
2013-04-03 15:50:00,40.5,18.0,30.10,West,273,20.0,30.0,40,0.00,SCT,,0.00,WeatherDisplay:10.37,2013-04-03 19:50:00,
2013-04-03 16:00:00,40.5,18.6,30.11,WNW,303,24.0,30.0,41,0.00,SCT,,0.00,WeatherDisplay:10.37,2013-04-03 20:00:00,
2013-04-03 16:10:00,41.2,19.3,30.11,WNW,294,17.0,33.0,41,0.00,SCT,,0.00,WeatherDisplay:10.37,2013-04-03 20:10:00,
2013-04-03 16:20:00,39.3,18.6,30.11,WNW,284,26.0,38.0,43,0.00,SCT,,0.00,WeatherDisplay:10.37,2013-04-03 20:20:00,
2013-04-03 16:30:00,39.5,18.3,30.12,NW,305,24.0,35.0,42,0.00,SCT,,0.00,WeatherDisplay:10.37,2013-04-03 20:30:00,
2013-04-03 16:40:00,38.8,17.1,30.12,WNW,289,23.0,35.0,41,0.00,SCT,,0.00,WeatherDisplay:10.37,2013-04-03 20:40:00,
2013-04-03 17:00:00,38.2,18.2,30.13,WNW,298,17.0,39.0,44,0.00,SCT,,0.00,WeatherDisplay:10.37,2013-04-03 21:00:00,
2013-04-03 17:10:00,38.9,17.7,30.14,WNW,298,25.0,41.0,42,0.00,SCT,,0.00,WeatherDisplay:10.37,2013-04-03 21:10:00,
2013-04-03 17:20:00,39.0,18.9,30.14,WNW,301,13.0,38.0,44,0.00,SCT,,0.00,WeatherDisplay:10.37,2013-04-03 21:20:00,
2013-04-03 17:30:00,37.7,17.2,30.14,WNW,295,23.0,36.0,43,0.00,SCT,,0.00,WeatherDisplay:10.37,2013-04-03 21:30:00,
2013-04-03 17:40:00,38.4,17.8,30.14,WNW,298,13.0,27.0,43,0.00,SCT,,0.00,WeatherDisplay:10.37,2013-04-03 21:40:00,
2013-04-03 17:50:00,37.8,17.8,30.15,WNW,285,23.0,36.0,44,0.00,SCT,,0.00,WeatherDisplay:10.37,2013-04-03 21:50:00,
2013-04-03 18:00:00,36.9,16.5,30.16,West,278,13.0,33.0,43,0.00,SCT,,0.00,WeatherDisplay:10.37,2013-04-03 22:00:00,
2013-04-03 18:10:00,36.5,17.7,30.16,WNW,298,15.0,29.0,46,0.00,SCT,,0.00,WeatherDisplay:10.37,2013-04-03 22:10:00,
2013-04-03 18:20:00,35.7,17.4,30.17,WNW,294,21.0,35.0,47,0.00,SCT,,0.00,WeatherDisplay:10.37,2013-04-03 22:20:00,
2013-04-03 18:30:00,35.1,16.4,30.18,WNW,297,29.0,38.0,46,0.00,SCT,,0.00,WeatherDisplay:10.37,2013-04-03 22:30:00,
2013-04-03 18:40:00,34.9,16.2,30.18,WNW,290,15.0,36.0,46,0.00,SCT,,0.00,WeatherDisplay:10.37,2013-04-03 22:40:00,
2013-04-03 18:50:00,34.7,16.0,30.19,WNW,289,22.0,43.0,46,0.00,SCT,,0.00,WeatherDisplay:10.37,2013-04-03 22:50:00,
2013-04-03 19:00:00,34.3,16.6,30.20,WNW,288,24.0,44.0,48,0.00,SCT,,0.00,WeatherDisplay:10.37,2013-04-03 23:00:00,
2013-04-03 19:10:00,34.1,17.4,30.20,WNW,301,20.0,27.0,50,0.00,FEW,,0.00,WeatherDisplay:10.37,2013-04-03 23:10:00,
2013-04-03 19:20:00,34.1,17.4,30.20,WNW,286,16.0,24.0,50,0.00,FEW,,0.00,WeatherDisplay:10.37,2013-04-03 23:20:00,
2013-04-03 19:30:00,33.8,17.1,30.21,WNW,282,21.0,27.0,50,0.00,FEW,,0.00,WeatherDisplay:10.37,2013-04-03 23:30:00,
2013-04-03 19:40:00,33.4,17.2,30.22,WNW,288,8.0,24.0,51,0.00,FEW,,0.00,WeatherDisplay:10.37,2013-04-03 23:40:00,
2013-04-03 19:50:00,33.1,17.4,30.22,WNW,287,15.0,21.0,52,0.00,FEW,,0.00,WeatherDisplay:10.37,2013-04-03 23:50:00,
2013-04-03 20:00:00,33.0,17.3,30.22,WNW,302,7.0,21.0,52,0.00,FEW,,0.00,WeatherDisplay:10.37,2013-04-04 00:00:00,
2013-04-03 20:10:00,32.8,17.1,30.23,WNW,289,13.0,24.0,52,0.00,SCT,,0.00,WeatherDisplay:10.37,2013-04-04 00:10:00,
2013-04-03 20:20:00,32.9,16.7,30.23,WNW,282,12.0,29.0,51,0.00,SCT,,0.00,WeatherDisplay:10.37,2013-04-04 00:20:00,
2013-04-03 20:30:00,32.9,16.3,30.23,WNW,291,15.0,25.0,50,0.00,SCT,,0.00,WeatherDisplay:10.37,2013-04-04 00:30:00,
2013-04-03 20:40:00,32.6,16.5,30.24,WNW,292,8.0,20.0,51,0.00,SCT,,0.00,WeatherDisplay:10.37,2013-04-04 00:40:00,
2013-04-03 20:50:00,32.5,16.8,30.24,WNW,300,5.0,15.0,52,0.00,SCT,,0.00,WeatherDisplay:10.37,2013-04-04 00:50:00,
2013-04-03 21:00:00,32.4,16.8,30.24,WNW,295,20.0,30.0,52,0.00,SCT,,0.00,WeatherDisplay:10.37,2013-04-04 01:00:00,
2013-04-03 21:10:00,32.4,16.7,30.25,WNW,293,16.0,20.0,52,0.00,FEW,,0.00,WeatherDisplay:10.37,2013-04-04 01:10:00,
2013-04-03 21:20:00,32.3,17.1,30.25,WNW,301,13.0,30.0,53,0.00,FEW,,0.00,WeatherDisplay:10.37,2013-04-04 01:20:00,
2013-04-03 21:30:00,32.3,17.1,30.26,WNW,298,15.0,24.0,53,0.00,FEW,,0.00,WeatherDisplay:10.37,2013-04-04 01:30:00,
2013-04-03 21:40:00,32.1,17.3,30.26,WNW,291,10.0,20.0,54,0.00,FEW,,0.00,WeatherDisplay:10.37,2013-04-04 01:40:00,
2013-04-03 21:50:00,32.1,17.3,30.27,WNW,292,8.0,18.0,54,0.00,FEW,,0.00,WeatherDisplay:10.37,2013-04-04 01:50:00,
2013-04-03 22:00:00,32.0,17.6,30.26,WNW,296,18.0,21.0,55,0.00,FEW,,0.00,WeatherDisplay:10.37,2013-04-04 02:00:00,
2013-04-03 22:10:00,32.1,17.3,30.27,WNW,287,9.0,23.0,54,0.00,CLR,,0.00,WeatherDisplay:10.37,2013-04-04 02:10:00,
2013-04-03 22:20:00,32.1,17.7,30.28,WNW,294,8.0,24.0,55,0.00,CLR,,0.00,WeatherDisplay:10.37,2013-04-04 02:20:00,
2013-04-03 22:30:00,32.0,17.7,30.27,WNW,294,12.0,21.0,55,0.00,CLR,,0.00,WeatherDisplay:10.37,2013-04-04 02:30:00,
2013-04-03 22:40:00,32.1,17.7,30.28,WNW,294,8.0,21.0,55,0.00,CLR,,0.00,WeatherDisplay:10.37,2013-04-04 02:40:00,
2013-04-03 22:50:00,31.9,18.4,30.28,WNW,289,15.0,25.0,57,0.00,CLR,,0.00,WeatherDisplay:10.37,2013-04-04 02:50:00,
2013-04-03 23:00:00,31.9,18.4,30.28,WNW,282,7.0,23.0,57,0.00,CLR,,0.00,WeatherDisplay:10.37,2013-04-04 03:00:00,
2013-04-03 23:10:00,31.7,18.6,30.28,WNW,294,5.0,18.0,58,0.00,CLR,,0.00,WeatherDisplay:10.37,2013-04-04 03:10:00,
2013-04-03 23:20:00,31.8,18.7,30.29,WNW,284,7.0,21.0,58,0.00,CLR,,0.00,WeatherDisplay:10.37,2013-04-04 03:20:00,
2013-04-03 23:30:00,31.7,18.6,30.28,WNW,294,13.0,17.0,58,0.00,CLR,,0.00,WeatherDisplay:10.37,2013-04-04 03:30:00,
2013-04-03 23:40:00,31.7,18.6,30.28,WNW,295,17.0,24.0,58,0.00,CLR,,0.00,WeatherDisplay:10.37,2013-04-04 03:40:00,
2013-04-03 23:50:00,31.7,18.6,30.29,WNW,295,17.0,20.0,58,0.00,CLR,,0.00,WeatherDisplay:10.37,2013-04-04 03:50:00,